sensor_id;sensor_type;location;lat;lon;timestamp;temperature;humidity
21580;DHT22;10951;59.656;9.666;2022-12-18T00:01:19;-5.90;99.90
21580;DHT22;10951;59.656;9.666;2022-12-18T00:03:46;-6.00;99.90
21580;DHT22;10951;59.656;9.666;2022-12-18T00:06:15;-6.10;99.90
21580;DHT22;10951;59.656;9.666;2022-12-18T00:08:43;-6.10;99.90
21580;DHT22;10951;59.656;9.666;2022-12-18T00:11:14;-6.20;99.90
21580;DHT22;10951;59.656;9.666;2022-12-18T00:13:41;-6.20;99.90
21580;DHT22;10951;59.656;9.666;2022-12-18T00:16:14;-6.20;99.90
21580;DHT22;10951;59.656;9.666;2022-12-18T00:18:41;-6.20;99.90
21580;DHT22;10951;59.656;9.666;2022-12-18T00:21:10;-6.20;99.90
21580;DHT22;10951;59.656;9.666;2022-12-18T00:23:38;-6.20;99.90
21580;DHT22;10951;59.656;9.666;2022-12-18T00:26:09;-6.20;99.90
21580;DHT22;10951;59.656;9.666;2022-12-18T00:28:37;-6.20;99.90
21580;DHT22;10951;59.656;9.666;2022-12-18T00:31:06;-6.20;99.90
21580;DHT22;10951;59.656;9.666;2022-12-18T00:33:33;-6.30;99.90
21580;DHT22;10951;59.656;9.666;2022-12-18T00:38:33;-6.20;99.90
21580;DHT22;10951;59.656;9.666;2022-12-18T00:41:00;-6.20;99.90
21580;DHT22;10951;59.656;9.666;2022-12-18T00:43:27;-6.30;99.90
21580;DHT22;10951;59.656;9.666;2022-12-18T00:45:54;-6.20;99.90
21580;DHT22;10951;59.656;9.666;2022-12-18T00:48:21;-6.30;99.90
21580;DHT22;10951;59.656;9.666;2022-12-18T00:50:49;-6.30;99.90
21580;DHT22;10951;59.656;9.666;2022-12-18T00:53:17;-6.30;99.90
21580;DHT22;10951;59.656;9.666;2022-12-18T00:55:44;-6.40;99.90
21580;DHT22;10951;59.656;9.666;2022-12-18T00:58:13;-6.40;99.90
21580;DHT22;10951;59.656;9.666;2022-12-18T01:00:40;-6.50;99.90
21580;DHT22;10951;59.656;9.666;2022-12-18T01:03:13;-6.60;99.90
21580;DHT22;10951;59.656;9.666;2022-12-18T01:05:41;-6.60;99.90
21580;DHT22;10951;59.656;9.666;2022-12-18T01:08:08;-6.60;99.90
21580;DHT22;10951;59.656;9.666;2022-12-18T01:10:35;-6.60;99.90
21580;DHT22;10951;59.656;9.666;2022-12-18T01:13:02;-6.60;99.90
21580;DHT22;10951;59.656;9.666;2022-12-18T01:15:29;-6.50;99.90
21580;DHT22;10951;59.656;9.666;2022-12-18T01:17:56;-6.50;99.90
21580;DHT22;10951;59.656;9.666;2022-12-18T01:20:26;-6.50;99.90
21580;DHT22;10951;59.656;9.666;2022-12-18T01:22:53;-6.50;99.90
21580;DHT22;10951;59.656;9.666;2022-12-18T01:25:19;-6.50;99.90
21580;DHT22;10951;59.656;9.666;2022-12-18T01:27:46;-6.50;99.90
21580;DHT22;10951;59.656;9.666;2022-12-18T01:30:13;-6.50;99.90
21580;DHT22;10951;59.656;9.666;2022-12-18T01:32:40;-6.60;99.90
21580;DHT22;10951;59.656;9.666;2022-12-18T01:35:07;-6.60;99.90
21580;DHT22;10951;59.656;9.666;2022-12-18T01:37:34;-6.60;99.90
21580;DHT22;10951;59.656;9.666;2022-12-18T01:40:01;-6.60;99.90
21580;DHT22;10951;59.656;9.666;2022-12-18T01:42:28;-6.60;99.90
21580;DHT22;10951;59.656;9.666;2022-12-18T01:47:44;-6.60;99.90
21580;DHT22;10951;59.656;9.666;2022-12-18T01:53:02;-6.50;99.90
21580;DHT22;10951;59.656;9.666;2022-12-18T01:55:43;-6.60;99.90
21580;DHT22;10951;59.656;9.666;2022-12-18T01:58:14;-6.60;99.90
21580;DHT22;10951;59.656;9.666;2022-12-18T02:00:41;-6.60;99.90
21580;DHT22;10951;59.656;9.666;2022-12-18T02:03:08;-6.60;99.90
21580;DHT22;10951;59.656;9.666;2022-12-18T02:05:49;-6.50;99.90
21580;DHT22;10951;59.656;9.666;2022-12-18T02:08:48;-6.60;99.90
21580;DHT22;10951;59.656;9.666;2022-12-18T02:17:07;-6.70;99.90
21580;DHT22;10951;59.656;9.666;2022-12-18T02:19:47;-6.60;99.90
21580;DHT22;10951;59.656;9.666;2022-12-18T02:25:22;-6.60;99.90
21580;DHT22;10951;59.656;9.666;2022-12-18T02:27:52;-6.60;99.90
21580;DHT22;10951;59.656;9.666;2022-12-18T02:30:21;-6.50;99.90
21580;DHT22;10951;59.656;9.666;2022-12-18T02:32:51;-6.50;99.90
21580;DHT22;10951;59.656;9.666;2022-12-18T02:35:23;-6.20;99.90
21580;DHT22;10951;59.656;9.666;2022-12-18T02:37:54;-6.00;99.90
21580;DHT22;10951;59.656;9.666;2022-12-18T02:40:22;-5.60;99.90
21580;DHT22;10951;59.656;9.666;2022-12-18T02:42:50;-5.40;99.90
21580;DHT22;10951;59.656;9.666;2022-12-18T02:45:19;-5.20;99.90
21580;DHT22;10951;59.656;9.666;2022-12-18T02:47:48;-5.10;99.90
21580;DHT22;10951;59.656;9.666;2022-12-18T03:01:21;-3.80;99.90
21580;DHT22;10951;59.656;9.666;2022-12-18T03:04:24;-3.50;99.90
21580;DHT22;10951;59.656;9.666;2022-12-18T03:06:57;-3.10;99.90
21580;DHT22;10951;59.656;9.666;2022-12-18T03:09:32;-2.80;99.90
21580;DHT22;10951;59.656;9.666;2022-12-18T03:15:21;-2.30;99.90
21580;DHT22;10951;59.656;9.666;2022-12-18T03:18:06;-2.10;99.90
21580;DHT22;10951;59.656;9.666;2022-12-18T03:20:37;-1.90;99.90
21580;DHT22;10951;59.656;9.666;2022-12-18T03:23:16;-1.80;99.90
21580;DHT22;10951;59.656;9.666;2022-12-18T03:25:49;-1.80;99.90
21580;DHT22;10951;59.656;9.666;2022-12-18T03:28:22;-1.80;99.90
21580;DHT22;10951;59.656;9.666;2022-12-18T03:30:57;-1.90;99.90
21580;DHT22;10951;59.656;9.666;2022-12-18T03:33:38;-1.80;99.90
21580;DHT22;10951;59.656;9.666;2022-12-18T03:36:07;-1.80;99.90
21580;DHT22;10951;59.656;9.666;2022-12-18T03:38:34;-1.80;99.90
21580;DHT22;10951;59.656;9.666;2022-12-18T03:43:50;-1.70;99.90
21580;DHT22;10951;59.656;9.666;2022-12-18T03:54:52;-1.80;99.90
21580;DHT22;10951;59.656;9.666;2022-12-18T03:57:24;-1.70;99.90
21580;DHT22;10951;59.656;9.666;2022-12-18T04:00:00;-1.60;99.90
21580;DHT22;10951;59.656;9.666;2022-12-18T04:02:51;-1.50;99.90
21580;DHT22;10951;59.656;9.666;2022-12-18T04:05:25;-1.40;99.90
21580;DHT22;10951;59.656;9.666;2022-12-18T04:07:55;-1.20;99.90
21580;DHT22;10951;59.656;9.666;2022-12-18T04:10:23;-1.00;99.90
21580;DHT22;10951;59.656;9.666;2022-12-18T04:12:50;-0.90;99.90
21580;DHT22;10951;59.656;9.666;2022-12-18T04:15:18;-0.80;99.90
21580;DHT22;10951;59.656;9.666;2022-12-18T04:17:49;-1.00;99.90
21580;DHT22;10951;59.656;9.666;2022-12-18T04:20:20;-1.20;99.90
21580;DHT22;10951;59.656;9.666;2022-12-18T04:22:48;-1.40;99.90
21580;DHT22;10951;59.656;9.666;2022-12-18T04:25:16;-1.60;99.90
21580;DHT22;10951;59.656;9.666;2022-12-18T04:27:55;-1.80;99.90
21580;DHT22;10951;59.656;9.666;2022-12-18T04:30:22;-1.70;99.90
21580;DHT22;10951;59.656;9.666;2022-12-18T04:32:49;-1.70;99.90
21580;DHT22;10951;59.656;9.666;2022-12-18T04:35:19;-1.60;99.90
21580;DHT22;10951;59.656;9.666;2022-12-18T04:37:46;-1.40;99.90
21580;DHT22;10951;59.656;9.666;2022-12-18T04:40:14;-1.30;99.90
21580;DHT22;10951;59.656;9.666;2022-12-18T04:42:44;-1.10;99.90
21580;DHT22;10951;59.656;9.666;2022-12-18T04:45:11;-0.90;99.90
21580;DHT22;10951;59.656;9.666;2022-12-18T04:47:38;-0.90;99.90
21580;DHT22;10951;59.656;9.666;2022-12-18T04:50:05;-0.80;99.90
21580;DHT22;10951;59.656;9.666;2022-12-18T04:52:32;-0.70;99.90
21580;DHT22;10951;59.656;9.666;2022-12-18T04:54:59;-0.50;99.90
21580;DHT22;10951;59.656;9.666;2022-12-18T04:57:26;-0.50;99.90
21580;DHT22;10951;59.656;9.666;2022-12-18T04:59:53;-0.30;99.90
21580;DHT22;10951;59.656;9.666;2022-12-18T05:02:20;-0.30;99.90
21580;DHT22;10951;59.656;9.666;2022-12-18T05:04:47;-0.20;99.90
21580;DHT22;10951;59.656;9.666;2022-12-18T05:07:14;-0.20;99.90
21580;DHT22;10951;59.656;9.666;2022-12-18T05:09:41;-0.10;99.90
21580;DHT22;10951;59.656;9.666;2022-12-18T05:12:08;-0.10;99.90
21580;DHT22;10951;59.656;9.666;2022-12-18T05:14:35;0.00;99.90
21580;DHT22;10951;59.656;9.666;2022-12-18T05:17:02;0.00;99.90
21580;DHT22;10951;59.656;9.666;2022-12-18T05:19:28;0.00;99.90
21580;DHT22;10951;59.656;9.666;2022-12-18T05:21:55;0.00;99.90
21580;DHT22;10951;59.656;9.666;2022-12-18T05:24:22;0.00;99.90
21580;DHT22;10951;59.656;9.666;2022-12-18T05:26:50;0.00;99.90
21580;DHT22;10951;59.656;9.666;2022-12-18T05:29:17;0.00;99.90
21580;DHT22;10951;59.656;9.666;2022-12-18T05:31:43;-0.10;99.90
21580;DHT22;10951;59.656;9.666;2022-12-18T05:34:10;-0.10;99.90
21580;DHT22;10951;59.656;9.666;2022-12-18T05:36:38;-0.10;99.90
21580;DHT22;10951;59.656;9.666;2022-12-18T05:39:05;0.00;99.90
21580;DHT22;10951;59.656;9.666;2022-12-18T05:41:32;0.00;99.90
21580;DHT22;10951;59.656;9.666;2022-12-18T05:44:00;-0.10;99.90
21580;DHT22;10951;59.656;9.666;2022-12-18T05:46:27;0.00;99.90
21580;DHT22;10951;59.656;9.666;2022-12-18T05:48:54;0.00;99.90
21580;DHT22;10951;59.656;9.666;2022-12-18T05:51:21;0.00;99.90
21580;DHT22;10951;59.656;9.666;2022-12-18T05:53:48;0.10;99.90
21580;DHT22;10951;59.656;9.666;2022-12-18T05:56:18;0.10;99.90
21580;DHT22;10951;59.656;9.666;2022-12-18T05:58:46;0.10;99.90
21580;DHT22;10951;59.656;9.666;2022-12-18T06:01:20;0.00;99.90
21580;DHT22;10951;59.656;9.666;2022-12-18T06:03:47;-0.30;99.90
21580;DHT22;10951;59.656;9.666;2022-12-18T06:06:23;-0.70;99.90
21580;DHT22;10951;59.656;9.666;2022-12-18T06:08:51;-1.00;99.90
21580;DHT22;10951;59.656;9.666;2022-12-18T06:11:22;-1.20;99.90
21580;DHT22;10951;59.656;9.666;2022-12-18T06:13:55;-1.20;99.90
21580;DHT22;10951;59.656;9.666;2022-12-18T06:16:25;-1.30;99.90
21580;DHT22;10951;59.656;9.666;2022-12-18T06:18:53;-1.30;99.90
21580;DHT22;10951;59.656;9.666;2022-12-18T06:21:20;-1.30;99.90
21580;DHT22;10951;59.656;9.666;2022-12-18T06:23:47;-1.30;99.90
21580;DHT22;10951;59.656;9.666;2022-12-18T06:26:14;-1.30;99.90
21580;DHT22;10951;59.656;9.666;2022-12-18T06:28:41;-1.30;99.90
21580;DHT22;10951;59.656;9.666;2022-12-18T06:31:09;-1.20;99.90
21580;DHT22;10951;59.656;9.666;2022-12-18T06:33:36;-1.20;99.90
21580;DHT22;10951;59.656;9.666;2022-12-18T06:36:10;-1.10;99.90
21580;DHT22;10951;59.656;9.666;2022-12-18T06:38:40;-1.10;99.90
21580;DHT22;10951;59.656;9.666;2022-12-18T06:41:15;-0.90;99.90
21580;DHT22;10951;59.656;9.666;2022-12-18T06:43:43;-0.90;99.90
21580;DHT22;10951;59.656;9.666;2022-12-18T06:46:11;-0.80;99.90
21580;DHT22;10951;59.656;9.666;2022-12-18T06:48:38;-0.80;99.90
21580;DHT22;10951;59.656;9.666;2022-12-18T06:51:06;-0.80;99.90
21580;DHT22;10951;59.656;9.666;2022-12-18T06:53:33;-0.80;99.90
21580;DHT22;10951;59.656;9.666;2022-12-18T06:56:05;-0.70;99.90
21580;DHT22;10951;59.656;9.666;2022-12-18T06:58:37;-0.70;99.90
21580;DHT22;10951;59.656;9.666;2022-12-18T07:01:05;-0.80;99.90
21580;DHT22;10951;59.656;9.666;2022-12-18T07:03:33;-0.90;99.90
21580;DHT22;10951;59.656;9.666;2022-12-18T07:06:00;-0.80;99.90
21580;DHT22;10951;59.656;9.666;2022-12-18T07:08:29;-0.90;99.90
21580;DHT22;10951;59.656;9.666;2022-12-18T07:10:56;-0.90;99.90
21580;DHT22;10951;59.656;9.666;2022-12-18T07:13:23;-1.00;99.90
21580;DHT22;10951;59.656;9.666;2022-12-18T07:15:50;-0.90;99.90
21580;DHT22;10951;59.656;9.666;2022-12-18T07:18:17;-1.00;99.90
21580;DHT22;10951;59.656;9.666;2022-12-18T07:20:44;-1.10;99.90
21580;DHT22;10951;59.656;9.666;2022-12-18T07:23:13;-1.10;99.90
21580;DHT22;10951;59.656;9.666;2022-12-18T07:25:40;-1.20;99.90
21580;DHT22;10951;59.656;9.666;2022-12-18T07:28:07;-1.20;99.90
21580;DHT22;10951;59.656;9.666;2022-12-18T07:30:39;-1.30;99.90
21580;DHT22;10951;59.656;9.666;2022-12-18T07:33:07;-1.40;99.90
21580;DHT22;10951;59.656;9.666;2022-12-18T07:35:34;-1.40;99.90
21580;DHT22;10951;59.656;9.666;2022-12-18T07:38:01;-1.50;99.90
21580;DHT22;10951;59.656;9.666;2022-12-18T07:40:28;-1.60;99.90
21580;DHT22;10951;59.656;9.666;2022-12-18T07:42:55;-1.50;99.90
21580;DHT22;10951;59.656;9.666;2022-12-18T07:45:22;-1.60;99.90
21580;DHT22;10951;59.656;9.666;2022-12-18T07:47:49;-1.60;99.90
21580;DHT22;10951;59.656;9.666;2022-12-18T07:50:15;-1.60;99.90
21580;DHT22;10951;59.656;9.666;2022-12-18T07:52:42;-1.60;99.90
21580;DHT22;10951;59.656;9.666;2022-12-18T07:55:09;-1.60;99.90
21580;DHT22;10951;59.656;9.666;2022-12-18T07:57:36;-1.60;99.90
21580;DHT22;10951;59.656;9.666;2022-12-18T08:00:23;-1.60;99.90
21580;DHT22;10951;59.656;9.666;2022-12-18T08:02:50;-1.60;99.90
21580;DHT22;10951;59.656;9.666;2022-12-18T08:05:17;-1.70;99.90
21580;DHT22;10951;59.656;9.666;2022-12-18T08:07:44;-1.60;99.90
21580;DHT22;10951;59.656;9.666;2022-12-18T08:10:11;-1.60;99.90
21580;DHT22;10951;59.656;9.666;2022-12-18T08:12:38;-1.60;99.90
21580;DHT22;10951;59.656;9.666;2022-12-18T08:15:05;-1.60;99.90
21580;DHT22;10951;59.656;9.666;2022-12-18T08:17:33;-1.60;99.90
21580;DHT22;10951;59.656;9.666;2022-12-18T08:20:00;-1.70;99.90
21580;DHT22;10951;59.656;9.666;2022-12-18T08:22:27;-1.70;99.90
21580;DHT22;10951;59.656;9.666;2022-12-18T08:24:54;-1.80;99.90
21580;DHT22;10951;59.656;9.666;2022-12-18T08:27:21;-1.80;99.90
21580;DHT22;10951;59.656;9.666;2022-12-18T08:29:56;-1.90;99.90
21580;DHT22;10951;59.656;9.666;2022-12-18T08:32:25;-2.00;99.90
21580;DHT22;10951;59.656;9.666;2022-12-18T08:34:52;-1.90;99.90
21580;DHT22;10951;59.656;9.666;2022-12-18T08:37:19;-2.00;99.90
21580;DHT22;10951;59.656;9.666;2022-12-18T08:39:46;-2.10;99.90
21580;DHT22;10951;59.656;9.666;2022-12-18T08:42:13;-2.10;99.90
21580;DHT22;10951;59.656;9.666;2022-12-18T08:44:58;-2.10;99.90
21580;DHT22;10951;59.656;9.666;2022-12-18T08:47:25;-2.10;99.90
21580;DHT22;10951;59.656;9.666;2022-12-18T08:49:52;-2.10;99.90
21580;DHT22;10951;59.656;9.666;2022-12-18T08:52:19;-2.10;99.90
21580;DHT22;10951;59.656;9.666;2022-12-18T08:54:46;-2.10;99.90
21580;DHT22;10951;59.656;9.666;2022-12-18T08:57:13;-2.10;99.90
21580;DHT22;10951;59.656;9.666;2022-12-18T08:59:40;-2.00;99.90
21580;DHT22;10951;59.656;9.666;2022-12-18T09:02:11;-2.00;99.90
21580;DHT22;10951;59.656;9.666;2022-12-18T09:04:39;-2.00;99.90
21580;DHT22;10951;59.656;9.666;2022-12-18T09:07:06;-1.90;99.90
21580;DHT22;10951;59.656;9.666;2022-12-18T09:09:33;-1.80;99.90
21580;DHT22;10951;59.656;9.666;2022-12-18T09:12:00;-1.70;99.90
21580;DHT22;10951;59.656;9.666;2022-12-18T09:14:27;-1.50;99.90
21580;DHT22;10951;59.656;9.666;2022-12-18T09:16:54;-1.30;99.90
21580;DHT22;10951;59.656;9.666;2022-12-18T09:19:21;-1.10;99.90
21580;DHT22;10951;59.656;9.666;2022-12-18T09:21:48;-0.80;99.90
21580;DHT22;10951;59.656;9.666;2022-12-18T09:24:15;-0.60;99.90
21580;DHT22;10951;59.656;9.666;2022-12-18T09:26:43;-0.40;99.90
21580;DHT22;10951;59.656;9.666;2022-12-18T09:29:13;-0.30;99.90
21580;DHT22;10951;59.656;9.666;2022-12-18T09:31:41;-0.10;99.90
21580;DHT22;10951;59.656;9.666;2022-12-18T09:34:08;0.00;99.90
21580;DHT22;10951;59.656;9.666;2022-12-18T09:36:35;0.10;99.90
21580;DHT22;10951;59.656;9.666;2022-12-18T09:39:03;0.20;99.90
21580;DHT22;10951;59.656;9.666;2022-12-18T09:44:16;0.30;99.90
21580;DHT22;10951;59.656;9.666;2022-12-18T09:46:51;0.40;99.90
21580;DHT22;10951;59.656;9.666;2022-12-18T09:49:23;0.50;99.90
21580;DHT22;10951;59.656;9.666;2022-12-18T09:52:08;0.50;99.90
21580;DHT22;10951;59.656;9.666;2022-12-18T09:54:41;0.50;99.90
21580;DHT22;10951;59.656;9.666;2022-12-18T09:57:14;0.60;99.90
21580;DHT22;10951;59.656;9.666;2022-12-18T09:59:45;0.70;99.90
21580;DHT22;10951;59.656;9.666;2022-12-18T10:02:21;0.70;99.90
21580;DHT22;10951;59.656;9.666;2022-12-18T10:05:02;0.60;99.90
21580;DHT22;10951;59.656;9.666;2022-12-18T10:07:47;0.30;99.90
21580;DHT22;10951;59.656;9.666;2022-12-18T10:21:20;0.00;99.90
21580;DHT22;10951;59.656;9.666;2022-12-18T10:26:33;-0.10;99.90
21580;DHT22;10951;59.656;9.666;2022-12-18T10:29:01;0.00;99.90
21580;DHT22;10951;59.656;9.666;2022-12-18T10:31:31;0.00;99.90
21580;DHT22;10951;59.656;9.666;2022-12-18T10:33:58;0.00;99.90
21580;DHT22;10951;59.656;9.666;2022-12-18T10:36:25;0.00;99.90
21580;DHT22;10951;59.656;9.666;2022-12-18T10:38:52;0.00;99.90
21580;DHT22;10951;59.656;9.666;2022-12-18T10:43:47;0.00;99.90
21580;DHT22;10951;59.656;9.666;2022-12-18T10:46:17;0.10;99.90
21580;DHT22;10951;59.656;9.666;2022-12-18T10:51:32;0.50;99.90
21580;DHT22;10951;59.656;9.666;2022-12-18T10:56:35;0.60;99.90
21580;DHT22;10951;59.656;9.666;2022-12-18T10:59:04;0.70;99.90
21580;DHT22;10951;59.656;9.666;2022-12-18T11:06:56;0.90;99.90
21580;DHT22;10951;59.656;9.666;2022-12-18T11:11:59;1.00;99.90
21580;DHT22;10951;59.656;9.666;2022-12-18T11:14:32;1.00;99.90
21580;DHT22;10951;59.656;9.666;2022-12-18T11:17:00;1.10;99.90
21580;DHT22;10951;59.656;9.666;2022-12-18T11:19:55;1.20;99.20
21580;DHT22;10951;59.656;9.666;2022-12-18T11:22:28;1.30;99.00
21580;DHT22;10951;59.656;9.666;2022-12-18T11:25:02;1.40;98.40
21580;DHT22;10951;59.656;9.666;2022-12-18T11:27:56;1.40;98.60
21580;DHT22;10951;59.656;9.666;2022-12-18T11:30:35;1.40;98.80
21580;DHT22;10951;59.656;9.666;2022-12-18T11:33:10;1.40;98.30
21580;DHT22;10951;59.656;9.666;2022-12-18T11:35:51;1.50;97.70
21580;DHT22;10951;59.656;9.666;2022-12-18T11:38:25;1.60;97.50
21580;DHT22;10951;59.656;9.666;2022-12-18T11:43:47;1.90;96.80
21580;DHT22;10951;59.656;9.666;2022-12-18T11:46:27;1.90;96.70
21580;DHT22;10951;59.656;9.666;2022-12-18T11:49:06;1.90;95.00
21580;DHT22;10951;59.656;9.666;2022-12-18T11:51:51;2.10;94.50
21580;DHT22;10951;59.656;9.666;2022-12-18T11:54:20;2.20;93.90
21580;DHT22;10951;59.656;9.666;2022-12-18T11:56:51;2.30;94.60
21580;DHT22;10951;59.656;9.666;2022-12-18T11:59:31;2.20;95.00
21580;DHT22;10951;59.656;9.666;2022-12-18T12:05:05;2.10;95.60
21580;DHT22;10951;59.656;9.666;2022-12-18T12:08:01;1.90;96.00
21580;DHT22;10951;59.656;9.666;2022-12-18T12:29:03;0.80;99.90
21580;DHT22;10951;59.656;9.666;2022-12-18T12:34:17;0.70;99.90
21580;DHT22;10951;59.656;9.666;2022-12-18T12:39:40;0.60;99.90
21580;DHT22;10951;59.656;9.666;2022-12-18T12:42:32;0.40;99.90
21580;DHT22;10951;59.656;9.666;2022-12-18T12:45:38;0.30;99.90
21580;DHT22;10951;59.656;9.666;2022-12-18T12:48:15;0.30;99.90
21580;DHT22;10951;59.656;9.666;2022-12-18T12:50:43;0.30;99.90
21580;DHT22;10951;59.656;9.666;2022-12-18T12:53:23;0.30;99.90
21580;DHT22;10951;59.656;9.666;2022-12-18T12:55:52;0.30;99.90
21580;DHT22;10951;59.656;9.666;2022-12-18T12:58:42;0.40;99.90
21580;DHT22;10951;59.656;9.666;2022-12-18T13:01:22;0.40;99.90
21580;DHT22;10951;59.656;9.666;2022-12-18T13:04:16;0.50;99.90
21580;DHT22;10951;59.656;9.666;2022-12-18T13:07:01;0.50;99.90
21580;DHT22;10951;59.656;9.666;2022-12-18T13:09:31;0.50;99.90
21580;DHT22;10951;59.656;9.666;2022-12-18T13:12:04;0.40;99.90
21580;DHT22;10951;59.656;9.666;2022-12-18T13:15:21;0.20;99.90
21580;DHT22;10951;59.656;9.666;2022-12-18T13:17:49;0.10;99.90
21580;DHT22;10951;59.656;9.666;2022-12-18T13:23:26;-0.10;99.90
21580;DHT22;10951;59.656;9.666;2022-12-18T13:31:14;-0.10;99.90
21580;DHT22;10951;59.656;9.666;2022-12-18T13:33:44;-0.10;99.90
21580;DHT22;10951;59.656;9.666;2022-12-18T13:36:33;-0.20;99.90
21580;DHT22;10951;59.656;9.666;2022-12-18T13:45:01;-0.40;99.90
21580;DHT22;10951;59.656;9.666;2022-12-18T13:47:32;-0.40;99.90
21580;DHT22;10951;59.656;9.666;2022-12-18T13:50:18;-0.60;99.90
21580;DHT22;10951;59.656;9.666;2022-12-18T13:52:48;-0.60;99.90
21580;DHT22;10951;59.656;9.666;2022-12-18T13:55:18;-0.60;99.90
21580;DHT22;10951;59.656;9.666;2022-12-18T13:57:45;-0.60;99.90
21580;DHT22;10951;59.656;9.666;2022-12-18T14:02:51;-0.70;99.90
21580;DHT22;10951;59.656;9.666;2022-12-18T14:05:29;-0.70;99.90
21580;DHT22;10951;59.656;9.666;2022-12-18T14:08:00;-0.70;99.90
21580;DHT22;10951;59.656;9.666;2022-12-18T14:10:28;-0.70;99.90
21580;DHT22;10951;59.656;9.666;2022-12-18T14:13:26;-0.70;99.90
21580;DHT22;10951;59.656;9.666;2022-12-18T14:15:55;-0.80;99.90
21580;DHT22;10951;59.656;9.666;2022-12-18T14:18:28;-0.90;99.90
21580;DHT22;10951;59.656;9.666;2022-12-18T14:21:00;-1.00;99.90
21580;DHT22;10951;59.656;9.666;2022-12-18T14:23:35;-1.10;99.90
21580;DHT22;10951;59.656;9.666;2022-12-18T14:28:50;-1.20;99.90
21580;DHT22;10951;59.656;9.666;2022-12-18T14:31:19;-1.30;99.90
21580;DHT22;10951;59.656;9.666;2022-12-18T14:33:46;-1.50;99.90
21580;DHT22;10951;59.656;9.666;2022-12-18T14:36:22;-1.50;99.90
21580;DHT22;10951;59.656;9.666;2022-12-18T14:38:52;-1.60;99.90
21580;DHT22;10951;59.656;9.666;2022-12-18T14:41:21;-1.60;99.90
21580;DHT22;10951;59.656;9.666;2022-12-18T14:43:50;-1.70;99.90
21580;DHT22;10951;59.656;9.666;2022-12-18T14:51:50;-1.80;99.90
21580;DHT22;10951;59.656;9.666;2022-12-18T14:54:19;-1.90;99.90
21580;DHT22;10951;59.656;9.666;2022-12-18T14:56:49;-2.00;99.90
21580;DHT22;10951;59.656;9.666;2022-12-18T14:59:22;-2.10;99.90
21580;DHT22;10951;59.656;9.666;2022-12-18T15:01:59;-2.10;99.90
21580;DHT22;10951;59.656;9.666;2022-12-18T15:04:34;-2.00;99.90
21580;DHT22;10951;59.656;9.666;2022-12-18T15:07:22;-2.10;99.90
21580;DHT22;10951;59.656;9.666;2022-12-18T15:12:45;-2.30;99.90
21580;DHT22;10951;59.656;9.666;2022-12-18T15:23:24;-2.60;99.90
21580;DHT22;10951;59.656;9.666;2022-12-18T15:25:59;-2.70;99.90
21580;DHT22;10951;59.656;9.666;2022-12-18T15:28:37;-2.60;99.90
21580;DHT22;10951;59.656;9.666;2022-12-18T15:33:41;-2.50;99.90
21580;DHT22;10951;59.656;9.666;2022-12-18T15:36:11;-2.50;99.90
21580;DHT22;10951;59.656;9.666;2022-12-18T15:38:39;-2.60;99.90
21580;DHT22;10951;59.656;9.666;2022-12-18T15:41:10;-2.70;99.90
21580;DHT22;10951;59.656;9.666;2022-12-18T15:43:40;-2.80;99.90
21580;DHT22;10951;59.656;9.666;2022-12-18T15:46:17;-2.90;99.90
21580;DHT22;10951;59.656;9.666;2022-12-18T15:48:49;-2.90;99.90
21580;DHT22;10951;59.656;9.666;2022-12-18T15:51:37;-2.90;99.90
21580;DHT22;10951;59.656;9.666;2022-12-18T15:54:06;-2.90;99.90
21580;DHT22;10951;59.656;9.666;2022-12-18T15:56:35;-3.00;99.90
21580;DHT22;10951;59.656;9.666;2022-12-18T15:59:23;-3.10;99.90
21580;DHT22;10951;59.656;9.666;2022-12-18T16:01:51;-3.10;99.90
21580;DHT22;10951;59.656;9.666;2022-12-18T16:04:20;-3.10;99.90
21580;DHT22;10951;59.656;9.666;2022-12-18T16:06:48;-3.20;99.90
21580;DHT22;10951;59.656;9.666;2022-12-18T16:09:36;-3.30;99.90
21580;DHT22;10951;59.656;9.666;2022-12-18T16:12:04;-3.30;99.90
21580;DHT22;10951;59.656;9.666;2022-12-18T16:14:32;-3.30;99.90
21580;DHT22;10951;59.656;9.666;2022-12-18T16:17:03;-3.30;99.90
21580;DHT22;10951;59.656;9.666;2022-12-18T16:19:30;-3.40;99.90
21580;DHT22;10951;59.656;9.666;2022-12-18T16:21:57;-3.30;99.90
21580;DHT22;10951;59.656;9.666;2022-12-18T16:24:30;-3.30;99.90
21580;DHT22;10951;59.656;9.666;2022-12-18T16:26:58;-3.30;99.90
21580;DHT22;10951;59.656;9.666;2022-12-18T16:29:27;-3.30;99.90
21580;DHT22;10951;59.656;9.666;2022-12-18T16:31:59;-3.30;99.90
21580;DHT22;10951;59.656;9.666;2022-12-18T16:34:28;-3.20;99.90
21580;DHT22;10951;59.656;9.666;2022-12-18T16:37:01;-3.30;99.90
21580;DHT22;10951;59.656;9.666;2022-12-18T16:39:35;-3.30;99.90
21580;DHT22;10951;59.656;9.666;2022-12-18T16:42:13;-3.30;99.90
21580;DHT22;10951;59.656;9.666;2022-12-18T16:44:43;-3.30;99.90
21580;DHT22;10951;59.656;9.666;2022-12-18T16:47:11;-3.20;99.90
21580;DHT22;10951;59.656;9.666;2022-12-18T16:49:41;-3.10;99.90
21580;DHT22;10951;59.656;9.666;2022-12-18T16:52:08;-3.10;99.90
21580;DHT22;10951;59.656;9.666;2022-12-18T16:54:35;-3.10;99.90
21580;DHT22;10951;59.656;9.666;2022-12-18T16:57:03;-3.10;99.90
21580;DHT22;10951;59.656;9.666;2022-12-18T16:59:33;-3.20;99.90
21580;DHT22;10951;59.656;9.666;2022-12-18T17:02:00;-3.20;99.90
21580;DHT22;10951;59.656;9.666;2022-12-18T17:04:27;-3.30;99.90
21580;DHT22;10951;59.656;9.666;2022-12-18T17:06:54;-3.40;99.90
21580;DHT22;10951;59.656;9.666;2022-12-18T17:09:21;-3.50;99.90
21580;DHT22;10951;59.656;9.666;2022-12-18T17:11:52;-3.50;99.90
21580;DHT22;10951;59.656;9.666;2022-12-18T17:14:21;-3.60;99.90
21580;DHT22;10951;59.656;9.666;2022-12-18T17:16:49;-3.60;99.90
21580;DHT22;10951;59.656;9.666;2022-12-18T17:19:36;-3.70;99.90
21580;DHT22;10951;59.656;9.666;2022-12-18T17:22:03;-3.80;99.90
21580;DHT22;10951;59.656;9.666;2022-12-18T17:24:30;-3.80;99.90
21580;DHT22;10951;59.656;9.666;2022-12-18T17:27:01;-3.80;99.90
21580;DHT22;10951;59.656;9.666;2022-12-18T17:29:28;-3.90;99.90
21580;DHT22;10951;59.656;9.666;2022-12-18T17:31:55;-4.00;99.90
21580;DHT22;10951;59.656;9.666;2022-12-18T17:34:23;-4.00;99.90
21580;DHT22;10951;59.656;9.666;2022-12-18T17:36:50;-4.00;99.90
21580;DHT22;10951;59.656;9.666;2022-12-18T17:39:19;-4.00;99.90
21580;DHT22;10951;59.656;9.666;2022-12-18T17:41:46;-4.10;99.90
21580;DHT22;10951;59.656;9.666;2022-12-18T17:44:14;-4.10;99.90
21580;DHT22;10951;59.656;9.666;2022-12-18T17:46:42;-4.20;99.90
21580;DHT22;10951;59.656;9.666;2022-12-18T17:49:10;-4.20;99.90
21580;DHT22;10951;59.656;9.666;2022-12-18T17:51:37;-4.20;99.90
21580;DHT22;10951;59.656;9.666;2022-12-18T17:54:05;-4.20;99.90
21580;DHT22;10951;59.656;9.666;2022-12-18T17:56:32;-4.20;99.90
21580;DHT22;10951;59.656;9.666;2022-12-18T17:58:59;-4.30;99.90
21580;DHT22;10951;59.656;9.666;2022-12-18T18:01:26;-4.30;99.90
21580;DHT22;10951;59.656;9.666;2022-12-18T18:03:54;-4.30;99.90
21580;DHT22;10951;59.656;9.666;2022-12-18T18:06:26;-4.30;99.90
21580;DHT22;10951;59.656;9.666;2022-12-18T18:08:53;-4.30;99.90
21580;DHT22;10951;59.656;9.666;2022-12-18T18:11:21;-4.30;99.90
21580;DHT22;10951;59.656;9.666;2022-12-18T18:14:13;-4.40;99.90
21580;DHT22;10951;59.656;9.666;2022-12-18T18:16:42;-4.50;99.90
21580;DHT22;10951;59.656;9.666;2022-12-18T18:19:21;-4.50;99.90
21580;DHT22;10951;59.656;9.666;2022-12-18T18:21:50;-4.60;99.90